createdAt,value
2017-02-01T00:00:25.691Z,2.43
2017-02-01T00:00:55.725Z,2.47
2017-02-01T00:01:25.748Z,2.5
2017-02-01T00:01:55.806Z,2.47
2017-02-01T00:02:25.810Z,2.5
2017-02-01T00:02:55.701Z,2.44
2017-02-01T00:03:25.727Z,2.41
2017-02-01T00:03:55.933Z,2.4
2017-02-01T00:04:25.781Z,2.41
2017-02-01T00:04:55.960Z,2.45
2017-02-01T00:05:25.988Z,2.41
2017-02-01T00:05:56.021Z,2.4
2017-02-01T00:06:26.065Z,2.44
2017-02-01T00:06:56.092Z,2.47
2017-02-01T00:07:25.966Z,2.45
2017-02-01T00:07:56.153Z,2.45
2017-02-01T00:08:26.174Z,2.38
2017-02-01T00:08:56.207Z,2.47
2017-02-01T00:09:26.235Z,2.41
2017-02-01T00:09:56.261Z,2.36
2017-02-01T00:10:26.293Z,2.4
2017-02-01T00:10:56.355Z,2.33
2017-02-01T00:11:26.351Z,2.37
2017-02-01T00:11:56.388Z,2.27
2017-02-01T00:12:26.411Z,2.37
2017-02-01T00:12:56.456Z,2.36
2017-02-01T00:13:26.333Z,2.3
2017-02-01T00:13:56.753Z,2.29
2017-02-01T00:14:26.534Z,2.29
2017-02-01T00:14:56.570Z,2.32
2017-02-01T00:15:26.601Z,2.29
2017-02-01T00:15:56.632Z,2.37
2017-02-01T00:16:26.666Z,2.4
2017-02-01T00:16:56.687Z,2.37
2017-02-01T00:17:26.714Z,2.41
2017-02-01T00:17:56.745Z,2.36
2017-02-01T00:18:26.777Z,2.43
2017-02-01T00:18:57.055Z,2.43
2017-02-01T00:19:26.837Z,2.48
2017-02-01T00:19:56.868Z,2.48
2017-02-01T00:20:26.895Z,2.48
2017-02-01T00:20:56.932Z,2.47
2017-02-01T00:21:26.983Z,2.5
2017-02-01T00:21:56.985Z,2.45
2017-02-01T00:22:27.018Z,2.37
2017-02-01T00:22:57.041Z,2.47
2017-02-01T00:23:27.083Z,2.37
2017-02-01T00:23:57.111Z,2.43
2017-02-01T00:24:27.142Z,2.44
2017-02-01T00:24:57.171Z,2.45
2017-02-01T00:25:27.194Z,2.45
2017-02-01T00:25:57.235Z,2.37
2017-02-01T00:26:27.263Z,2.47
2017-02-01T00:26:57.289Z,2.44
2017-02-01T00:27:27.320Z,2.48
2017-02-01T00:27:57.353Z,2.5
2017-02-01T00:28:27.377Z,2.44
2017-02-01T00:28:57.421Z,2.43
2017-02-01T00:29:27.746Z,2.41
2017-02-01T00:29:57.475Z,2.53
2017-02-01T00:30:27.508Z,2.51
2017-02-01T00:30:57.526Z,2.43
2017-02-01T00:31:27.563Z,2.43
2017-02-01T00:31:57.600Z,2.43
2017-02-01T00:32:27.624Z,2.48
2017-02-01T00:32:57.661Z,2.45
2017-02-01T00:33:27.679Z,2.45
2017-02-01T00:33:57.714Z,2.45
2017-02-01T00:34:28.049Z,2.44
2017-02-01T00:34:57.777Z,2.47
2017-02-01T00:35:27.819Z,2.48
2017-02-01T00:35:57.690Z,2.5
2017-02-01T00:36:27.876Z,2.45
2017-02-01T00:36:57.927Z,2.47
2017-02-01T00:37:27.928Z,2.48
2017-02-01T00:37:57.957Z,2.41
2017-02-01T00:38:27.990Z,2.47
2017-02-01T00:38:58.019Z,2.43
2017-02-01T00:39:28.053Z,2.38
2017-02-01T00:39:58.077Z,2.4
2017-02-01T00:40:28.104Z,2.36
2017-02-01T00:40:58.141Z,2.4
2017-02-01T00:41:28.171Z,2.33
2017-02-01T00:41:58.221Z,2.27
2017-02-01T00:42:28.226Z,2.32
2017-02-01T00:42:58.119Z,2.29
2017-02-01T00:43:28.286Z,2.26
2017-02-01T00:43:58.321Z,2.26
2017-02-01T00:44:28.348Z,2.3
2017-02-01T00:44:59.034Z,2.23
2017-02-01T00:45:28.408Z,2.27
2017-02-01T00:45:58.435Z,2.3
2017-02-01T00:46:28.468Z,2.26
2017-02-01T00:46:58.500Z,2.25
2017-02-01T00:47:28.534Z,2.23
2017-02-01T00:47:58.563Z,2.23
2017-02-01T00:48:28.586Z,2.27
2017-02-01T00:48:58.623Z,2.23
2017-02-01T00:49:28.651Z,2.27
2017-02-01T00:49:58.992Z,2.3
2017-02-01T00:50:28.706Z,2.26
2017-02-01T00:50:58.778Z,2.3
2017-02-01T00:51:28.768Z,2.29
2017-02-01T00:51:58.805Z,2.26
2017-02-01T00:52:28.827Z,2.36
2017-02-01T00:52:58.857Z,2.3
2017-02-01T00:53:28.893Z,2.3
2017-02-01T00:53:58.920Z,2.32
2017-02-01T00:54:28.949Z,2.3
2017-02-01T00:54:58.982Z,2.29
2017-02-01T00:55:29.020Z,2.32
2017-02-01T00:55:59.056Z,2.3
2017-02-01T00:56:29.071Z,2.33
2017-02-01T00:56:59.112Z,2.27
2017-02-01T00:57:29.131Z,2.23
2017-02-01T00:57:59.165Z,2.27
2017-02-01T00:58:29.190Z,2.33
2017-02-01T00:58:59.210Z,2.33
2017-02-01T00:59:29.247Z,2.29
2017-02-01T00:59:59.285Z,2.29
2017-02-01T01:00:29.311Z,2.29
2017-02-01T01:00:59.344Z,2.33
2017-02-01T01:01:29.377Z,2.32
2017-02-01T01:01:59.398Z,2.26
2017-02-01T01:02:29.434Z,2.27
2017-02-01T01:02:59.463Z,2.27
2017-02-01T01:03:29.497Z,2.22
2017-02-01T01:03:59.524Z,2.26
2017-02-01T01:04:29.551Z,2.25
2017-02-01T01:04:59.579Z,2.27
2017-02-01T01:05:29.866Z,2.3
2017-02-01T01:05:59.647Z,2.25
2017-02-01T01:06:29.524Z,2.26
2017-02-01T01:06:59.701Z,2.29
2017-02-01T01:07:29.589Z,2.25
2017-02-01T01:07:59.762Z,2.23
2017-02-01T01:08:29.649Z,2.19
2017-02-01T01:08:59.830Z,2.25
2017-02-01T01:09:29.854Z,2.22
2017-02-01T01:09:59.882Z,2.19
2017-02-01T01:10:30.215Z,2.19
2017-02-01T01:10:59.945Z,2.25
2017-02-01T01:11:29.832Z,2.26
2017-02-01T01:12:00.005Z,2.15
2017-02-01T01:12:30.037Z,2.15
2017-02-01T01:13:00.069Z,2.11
2017-02-01T01:13:30.098Z,2.19
2017-02-01T01:14:00.125Z,2.29
2017-02-01T01:14:30.015Z,2.15
2017-02-01T01:15:00.182Z,2.15
2017-02-01T01:15:30.516Z,2.15
2017-02-01T01:16:00.253Z,2.11
2017-02-01T01:16:30.277Z,2.2
2017-02-01T01:17:00.304Z,2.12
2017-02-01T01:17:30.338Z,2.19
2017-02-01T01:18:00.364Z,2.15
2017-02-01T01:18:30.244Z,2.12
2017-02-01T01:19:00.419Z,2.18
2017-02-01T01:19:30.306Z,2.18
2017-02-01T01:20:00.492Z,2.14
2017-02-01T01:20:30.365Z,2.18
2017-02-01T01:21:00.543Z,2.18
2017-02-01T01:21:30.579Z,2.14
2017-02-01T01:22:00.609Z,2.09
2017-02-01T01:22:30.631Z,2.12
2017-02-01T01:23:00.662Z,2.19
2017-02-01T01:23:30.546Z,2.11
2017-02-01T01:24:00.726Z,2.07
2017-02-01T01:24:30.756Z,2.04
2017-02-01T01:25:00.781Z,2.05
2017-02-01T01:25:30.816Z,2.08
2017-02-01T01:26:00.848Z,2.04
2017-02-01T01:26:30.879Z,2.09
2017-02-01T01:27:00.906Z,2.02
2017-02-01T01:27:30.940Z,2.04
2017-02-01T01:28:00.967Z,2.07
2017-02-01T01:28:31.002Z,2.11
2017-02-01T01:29:00.896Z,2.07
2017-02-01T01:29:31.057Z,2.02
2017-02-01T01:30:01.090Z,2.01
2017-02-01T01:30:31.112Z,2.01
2017-02-01T01:31:01.498Z,2.02
2017-02-01T01:31:31.177Z,2.01
2017-02-01T01:32:01.213Z,2.02
2017-02-01T01:32:31.235Z,2.02
2017-02-01T01:33:01.265Z,2.08
2017-02-01T01:33:31.332Z,2.04
2017-02-01T01:34:01.325Z,2.05
2017-02-01T01:34:31.371Z,2.07
2017-02-01T01:35:01.387Z,2.09
2017-02-01T01:35:31.422Z,2.09
2017-02-01T01:36:01.698Z,2.09
2017-02-01T01:36:31.469Z,2.15
2017-02-01T01:37:01.505Z,2.12
2017-02-01T01:37:31.541Z,2.12
2017-02-01T01:38:01.871Z,2.11
2017-02-01T01:38:31.599Z,2.22
2017-02-01T01:39:01.838Z,2.18
2017-02-01T01:39:31.650Z,2.14
2017-02-01T01:40:01.697Z,2.15
2017-02-01T01:40:31.716Z,2.22
2017-02-01T01:41:02.397Z,2.26
2017-02-01T01:41:31.772Z,2.23
2017-02-01T01:42:01.902Z,2.15
2017-02-01T01:42:31.836Z,2.25
2017-02-01T01:43:01.865Z,2.19
2017-02-01T01:43:31.895Z,2.25
2017-02-01T01:44:02.278Z,2.22
2017-02-01T01:44:31.951Z,2.19
2017-02-01T01:45:02.182Z,2.25
2017-02-01T01:45:32.016Z,2.29
2017-02-01T01:46:02.050Z,2.25
2017-02-01T01:46:32.075Z,2.25
2017-02-01T01:47:02.112Z,2.25
2017-02-01T01:47:32.137Z,2.22
2017-02-01T01:48:02.317Z,2.11
2017-02-01T01:48:32.195Z,2.27
2017-02-01T01:49:02.224Z,2.22
2017-02-01T01:49:32.258Z,2.2
2017-02-01T01:50:02.289Z,2.18
2017-02-01T01:50:32.315Z,2.2
2017-02-01T01:51:02.504Z,2.2
2017-02-01T01:51:32.715Z,2.22
2017-02-01T01:52:02.710Z,2.23
2017-02-01T01:52:32.432Z,2.2
2017-02-01T01:53:02.915Z,2.19
2017-02-01T01:53:32.495Z,2.27
2017-02-01T01:54:02.541Z,2.18
2017-02-01T01:54:32.559Z,2.23
2017-02-01T01:55:02.937Z,2.26
2017-02-01T01:55:32.617Z,2.22
2017-02-01T01:56:02.553Z,2.15
2017-02-01T01:56:32.954Z,2.2
2017-02-01T01:57:02.864Z,2.3
2017-02-01T01:57:32.737Z,2.19
2017-02-01T01:58:02.769Z,2.2
2017-02-01T01:58:32.799Z,2.26
2017-02-01T01:59:02.833Z,2.26
2017-02-01T01:59:32.853Z,2.23
2017-02-01T02:00:03.197Z,2.22
2017-02-01T02:00:32.917Z,2.25
2017-02-01T02:01:02.999Z,2.23
2017-02-01T02:01:32.974Z,2.25
2017-02-01T02:02:02.922Z,2.26
2017-02-01T02:02:33.039Z,2.23
2017-02-01T02:03:03.076Z,2.22
2017-02-01T02:03:32.957Z,2.26
2017-02-01T02:04:03.134Z,2.3
2017-02-01T02:04:33.154Z,2.25
2017-02-01T02:05:03.341Z,2.32
2017-02-01T02:05:33.223Z,2.3
2017-02-01T02:06:03.259Z,2.4
2017-02-01T02:06:33.289Z,2.32
2017-02-01T02:07:03.929Z,2.3
2017-02-01T02:07:33.345Z,2.29
2017-02-01T02:08:03.472Z,2.4
2017-02-01T02:08:33.414Z,2.36
2017-02-01T02:09:03.433Z,2.27
2017-02-01T02:09:33.468Z,2.29
2017-02-01T02:10:03.350Z,2.29
2017-02-01T02:10:33.521Z,2.29
2017-02-01T02:11:03.554Z,2.32
2017-02-01T02:11:33.592Z,2.32
2017-02-01T02:12:04.162Z,2.29
2017-02-01T02:12:33.639Z,2.43
2017-02-01T02:13:03.683Z,2.27
2017-02-01T02:13:33.710Z,2.33
2017-02-01T02:14:03.982Z,2.36
2017-02-01T02:14:33.761Z,2.26
2017-02-01T02:15:03.852Z,2.38
2017-02-01T02:15:33.820Z,2.33
2017-02-01T02:16:03.851Z,2.3
2017-02-01T02:16:33.880Z,2.44
2017-02-01T02:17:03.914Z,2.32
2017-02-01T02:17:33.940Z,2.33
2017-02-01T02:18:03.977Z,2.32
2017-02-01T02:18:34.001Z,2.33
2017-02-01T02:19:04.041Z,2.43
2017-02-01T02:19:34.069Z,2.37
2017-02-01T02:20:03.948Z,2.4
2017-02-01T02:20:34.126Z,2.29
2017-02-01T02:21:04.152Z,2.32
2017-02-01T02:21:34.184Z,2.4
2017-02-01T02:22:04.212Z,2.4
2017-02-01T02:22:34.590Z,2.36
2017-02-01T02:23:04.276Z,2.36
2017-02-01T02:23:34.308Z,2.33
2017-02-01T02:24:04.335Z,2.29
2017-02-01T02:24:34.369Z,2.3
2017-02-01T02:25:04.459Z,2.32
2017-02-01T02:25:34.425Z,2.37
2017-02-01T02:26:04.312Z,2.38
2017-02-01T02:26:34.492Z,2.4
2017-02-01T02:27:04.369Z,2.43
2017-02-01T02:27:34.849Z,2.41
2017-02-01T02:28:04.576Z,2.37
2017-02-01T02:28:34.604Z,2.43
2017-02-01T02:29:04.640Z,2.38
2017-02-01T02:29:34.680Z,2.41
2017-02-01T02:30:04.553Z,2.43
2017-02-01T02:30:34.730Z,2.44
2017-02-01T02:31:04.611Z,2.43
2017-02-01T02:31:34.794Z,2.44
2017-02-01T02:32:04.821Z,2.38
2017-02-01T02:32:35.149Z,2.41
2017-02-01T02:33:04.732Z,2.45
2017-02-01T02:33:34.917Z,2.47
2017-02-01T02:34:04.939Z,2.4
2017-02-01T02:34:35.008Z,2.3
2017-02-01T02:35:04.858Z,2.43
2017-02-01T02:35:35.030Z,2.38
2017-02-01T02:36:05.069Z,2.43
2017-02-01T02:36:35.100Z,2.44
2017-02-01T02:37:05.121Z,2.4
2017-02-01T02:37:35.143Z,2.41
2017-02-01T02:38:05.180Z,2.4
2017-02-01T02:38:35.218Z,2.41
2017-02-01T02:39:05.240Z,2.44
2017-02-01T02:39:35.273Z,2.44
2017-02-01T02:40:05.310Z,2.36
2017-02-01T02:40:35.333Z,2.41
2017-02-01T02:41:05.364Z,2.27
2017-02-01T02:41:35.245Z,2.44
2017-02-01T02:42:05.417Z,2.37
2017-02-01T02:42:35.453Z,2.4
2017-02-01T02:43:05.783Z,2.36
2017-02-01T02:43:35.519Z,2.41
2017-02-01T02:44:05.393Z,2.38
2017-02-01T02:44:35.573Z,2.41
2017-02-01T02:45:05.606Z,2.41
2017-02-01T02:45:35.637Z,2.44
2017-02-01T02:46:05.670Z,2.44
2017-02-01T02:46:35.695Z,2.47
2017-02-01T02:47:05.721Z,2.44
2017-02-01T02:47:35.752Z,2.4
2017-02-01T02:48:06.096Z,2.4
2017-02-01T02:48:35.822Z,2.43
2017-02-01T02:49:05.700Z,2.43
2017-02-01T02:49:35.878Z,2.41
2017-02-01T02:50:05.905Z,2.45
2017-02-01T02:50:35.964Z,2.5
2017-02-01T02:51:05.962Z,2.45
2017-02-01T02:51:35.992Z,2.43
2017-02-01T02:52:06.029Z,2.51
2017-02-01T02:52:36.057Z,2.47
2017-02-01T02:53:06.090Z,2.47
2017-02-01T02:53:36.116Z,2.48
2017-02-01T02:54:06.146Z,2.45
2017-02-01T02:54:36.176Z,2.55
2017-02-01T02:55:06.207Z,2.51
2017-02-01T02:55:36.235Z,2.45
2017-02-01T02:56:06.130Z,2.48
2017-02-01T02:56:36.300Z,2.55
2017-02-01T02:57:06.346Z,2.5
2017-02-01T02:57:36.357Z,2.51
2017-02-01T02:58:06.392Z,2.56
2017-02-01T02:58:36.722Z,2.51
2017-02-01T02:59:06.442Z,2.51
2017-02-01T02:59:36.489Z,2.56
2017-02-01T03:00:06.396Z,2.44
2017-02-01T03:00:36.538Z,2.59
2017-02-01T03:01:06.572Z,2.5
2017-02-01T03:01:36.607Z,2.47
2017-02-01T03:02:06.632Z,2.51
2017-02-01T03:02:36.669Z,2.5
2017-02-01T03:03:06.547Z,2.58
2017-02-01T03:03:37.074Z,2.53
2017-02-01T03:04:06.755Z,2.56
2017-02-01T03:04:36.775Z,2.51
2017-02-01T03:05:06.669Z,2.53
2017-02-01T03:05:36.854Z,2.56
2017-02-01T03:06:06.885Z,2.5
2017-02-01T03:06:36.902Z,2.61
2017-02-01T03:07:06.944Z,2.48
2017-02-01T03:07:36.964Z,2.48
2017-02-01T03:08:06.849Z,2.56
2017-02-01T03:08:37.023Z,2.53
2017-02-01T03:09:07.061Z,2.61
2017-02-01T03:09:36.939Z,2.56
2017-02-01T03:10:06.971Z,2.5
2017-02-01T03:10:37.144Z,2.51
2017-02-01T03:11:07.179Z,2.59
2017-02-01T03:11:37.206Z,2.53
2017-02-01T03:12:07.091Z,2.55
2017-02-01T03:12:37.269Z,2.53
2017-02-01T03:13:07.152Z,2.62
2017-02-01T03:13:37.352Z,2.53
2017-02-01T03:14:07.361Z,2.5
2017-02-01T03:14:37.386Z,2.53
2017-02-01T03:15:07.413Z,2.62
2017-02-01T03:15:37.454Z,2.55
2017-02-01T03:16:07.480Z,2.58
2017-02-01T03:16:37.509Z,2.62
2017-02-01T03:17:07.540Z,2.62
2017-02-01T03:17:37.595Z,2.55
2017-02-01T03:18:07.595Z,2.59
2017-02-01T03:18:37.633Z,2.62
2017-02-01T03:19:07.664Z,2.68
2017-02-01T03:19:37.686Z,2.61
2017-02-01T03:20:07.427Z,2.61
2017-02-01T03:20:37.750Z,2.62
2017-02-01T03:21:07.785Z,2.66
2017-02-01T03:21:37.812Z,2.61
2017-02-01T03:22:07.842Z,2.63
2017-02-01T03:22:37.874Z,2.63
2017-02-01T03:23:07.904Z,2.63
2017-02-01T03:23:37.932Z,2.58
2017-02-01T03:24:08.265Z,2.59
2017-02-01T03:24:38.040Z,2.61
2017-02-01T03:25:07.878Z,2.61
2017-02-01T03:25:38.049Z,2.65
2017-02-01T03:26:08.089Z,2.66
2017-02-01T03:26:38.116Z,2.68
2017-02-01T03:27:08.145Z,2.59
2017-02-01T03:27:38.174Z,2.65
2017-02-01T03:28:08.206Z,2.59
2017-02-01T03:28:38.240Z,2.56
2017-02-01T03:29:08.569Z,2.66
2017-02-01T03:29:38.290Z,2.62
2017-02-01T03:30:08.328Z,2.61
2017-02-01T03:30:38.360Z,2.59
2017-02-01T03:31:08.425Z,2.62
2017-02-01T03:31:38.414Z,2.68
2017-02-01T03:32:08.154Z,2.63
2017-02-01T03:32:38.477Z,2.62
2017-02-01T03:33:08.540Z,2.63
2017-02-01T03:33:38.565Z,2.65
2017-02-01T03:34:08.576Z,2.61
2017-02-01T03:34:38.606Z,2.61
2017-02-01T03:35:08.635Z,2.66
2017-02-01T03:35:38.662Z,2.65
2017-02-01T03:36:08.540Z,2.63
2017-02-01T03:36:38.577Z,2.62
2017-02-01T03:37:08.760Z,2.65
2017-02-01T03:37:38.785Z,2.63
2017-02-01T03:38:08.663Z,2.66
2017-02-01T03:38:38.845Z,2.62
2017-02-01T03:39:08.725Z,2.5
2017-02-01T03:39:38.908Z,2.61
2017-02-01T03:40:08.942Z,2.58
2017-02-01T03:40:38.968Z,2.65
2017-02-01T03:41:09.005Z,2.62
2017-02-01T03:41:39.059Z,2.69
2017-02-01T03:42:09.077Z,2.63
2017-02-01T03:42:39.083Z,2.58
2017-02-01T03:43:08.967Z,2.63
2017-02-01T03:43:39.147Z,2.73
2017-02-01T03:44:09.190Z,2.74
2017-02-01T03:44:39.210Z,2.63
2017-02-01T03:45:09.235Z,2.73
2017-02-01T03:45:39.269Z,2.77
2017-02-01T03:46:09.299Z,2.69
2017-02-01T03:46:39.178Z,2.63
2017-02-01T03:47:09.358Z,2.65
2017-02-01T03:47:39.387Z,2.63
2017-02-01T03:48:09.270Z,2.71
2017-02-01T03:48:39.456Z,2.62
2017-02-01T03:49:09.490Z,2.71
2017-02-01T03:49:39.759Z,2.66
2017-02-01T03:50:09.538Z,2.68
2017-02-01T03:50:39.574Z,2.69
2017-02-01T03:51:09.603Z,2.66
2017-02-01T03:51:39.629Z,2.59
2017-02-01T03:52:09.527Z,2.61
2017-02-01T03:52:39.694Z,2.59
2017-02-01T03:53:09.721Z,2.5
2017-02-01T03:53:39.755Z,2.62
2017-02-01T03:54:09.787Z,2.48
2017-02-01T03:54:40.112Z,2.48
2017-02-01T03:55:09.842Z,2.56
2017-02-01T03:55:39.874Z,2.53
2017-02-01T03:56:09.939Z,2.5
2017-02-01T03:56:39.941Z,2.55
2017-02-01T03:57:09.966Z,2.5
2017-02-01T03:57:39.990Z,2.59
2017-02-01T03:58:10.033Z,2.51
2017-02-01T03:58:40.066Z,2.58
2017-02-01T03:59:10.091Z,2.62
2017-02-01T03:59:40.149Z,2.62
2017-02-01T04:00:10.147Z,2.61
2017-02-01T04:00:40.190Z,2.69
2017-02-01T04:01:10.209Z,2.59
2017-02-01T04:01:40.244Z,2.68
2017-02-01T04:02:10.276Z,2.63
2017-02-01T04:02:40.300Z,2.62
2017-02-01T04:03:10.328Z,2.61
2017-02-01T04:03:40.364Z,2.63
2017-02-01T04:04:10.388Z,2.51
2017-02-01T04:04:40.421Z,2.65
2017-02-01T04:05:10.757Z,2.58
2017-02-01T04:05:40.476Z,2.59
2017-02-01T04:06:10.514Z,2.56
2017-02-01T04:06:40.544Z,2.53
2017-02-01T04:07:10.579Z,2.61
2017-02-01T04:07:40.607Z,2.61
2017-02-01T04:08:10.639Z,2.62
2017-02-01T04:08:40.665Z,2.58
2017-02-01T04:09:10.699Z,2.47
2017-02-01T04:09:40.729Z,2.51
2017-02-01T04:10:11.098Z,2.5
2017-02-01T04:10:40.783Z,2.5
2017-02-01T04:11:10.819Z,2.59
2017-02-01T04:11:40.853Z,2.55
2017-02-01T04:12:10.883Z,2.48
2017-02-01T04:12:40.905Z,2.56
2017-02-01T04:13:10.940Z,2.55
2017-02-01T04:13:40.969Z,2.58
2017-02-01T04:14:11.002Z,2.47
2017-02-01T04:14:41.035Z,2.51
2017-02-01T04:15:11.058Z,2.51
2017-02-01T04:15:41.096Z,2.45
2017-02-01T04:16:10.972Z,2.55
2017-02-01T04:16:41.155Z,2.45
2017-02-01T04:17:11.183Z,2.44
2017-02-01T04:17:41.214Z,2.5
2017-02-01T04:18:10.951Z,2.47
2017-02-01T04:18:41.125Z,2.47
2017-02-01T04:19:11.297Z,2.45
2017-02-01T04:19:41.339Z,2.51
2017-02-01T04:20:11.367Z,2.53
2017-02-01T04:20:41.850Z,2.53
2017-02-01T04:21:11.430Z,2.58
2017-02-01T04:21:41.456Z,2.51
2017-02-01T04:22:11.485Z,2.55
2017-02-01T04:22:41.526Z,2.53
2017-02-01T04:23:11.396Z,2.56
2017-02-01T04:23:41.579Z,2.51
2017-02-01T04:24:11.461Z,2.48
2017-02-01T04:24:41.637Z,2.53
2017-02-01T04:25:11.662Z,2.56
2017-02-01T04:25:41.999Z,2.55
2017-02-01T04:26:11.729Z,2.55
2017-02-01T04:26:41.759Z,2.55
2017-02-01T04:27:11.789Z,2.61
2017-02-01T04:27:41.817Z,2.58
2017-02-01T04:28:11.847Z,2.56
2017-02-01T04:28:41.880Z,2.65
2017-02-01T04:29:11.909Z,2.61
2017-02-01T04:29:41.939Z,2.65
2017-02-01T04:30:11.973Z,2.62
2017-02-01T04:30:42.002Z,2.68
2017-02-01T04:31:12.033Z,2.68
2017-02-01T04:31:42.061Z,2.63
2017-02-01T04:32:12.091Z,2.63
2017-02-01T04:32:42.118Z,2.66
2017-02-01T04:33:12.153Z,2.66
2017-02-01T04:33:42.221Z,2.62
2017-02-01T04:34:12.212Z,2.63
2017-02-01T04:34:42.245Z,2.58
2017-02-01T04:35:12.275Z,2.61
2017-02-01T04:35:42.308Z,2.62
2017-02-01T04:36:12.193Z,2.55
2017-02-01T04:36:42.361Z,2.55
2017-02-01T04:37:12.402Z,2.51
2017-02-01T04:37:42.424Z,2.51
2017-02-01T04:38:12.455Z,2.55
2017-02-01T04:38:42.486Z,2.51
2017-02-01T04:39:12.376Z,2.5
2017-02-01T04:39:42.547Z,2.47
2017-02-01T04:40:12.574Z,2.48
2017-02-01T04:40:42.608Z,2.4
2017-02-01T04:41:12.886Z,2.38
2017-02-01T04:41:42.666Z,2.47
2017-02-01T04:42:12.706Z,2.44
2017-02-01T04:42:42.730Z,2.45
2017-02-01T04:43:12.761Z,2.45
2017-02-01T04:43:42.792Z,2.45
2017-02-01T04:44:12.823Z,2.44
2017-02-01T04:44:42.851Z,2.44
2017-02-01T04:45:12.880Z,2.41
2017-02-01T04:45:42.907Z,2.43
2017-02-01T04:46:13.239Z,2.43
2017-02-01T04:46:42.972Z,2.44
2017-02-01T04:47:12.995Z,2.41
2017-02-01T04:47:43.032Z,2.38
2017-02-01T04:48:12.911Z,2.4
2017-02-01T04:48:43.089Z,2.36
2017-02-01T04:49:12.983Z,2.44
2017-02-01T04:49:43.150Z,2.41
2017-02-01T04:50:13.174Z,2.4
2017-02-01T04:50:43.212Z,2.37
2017-02-01T04:51:13.546Z,2.43
2017-02-01T04:51:43.273Z,2.38
2017-02-01T04:52:13.294Z,2.41
2017-02-01T04:52:43.330Z,2.36
2017-02-01T04:53:13.365Z,2.3
2017-02-01T04:53:43.391Z,2.32
2017-02-01T04:54:13.423Z,2.27
2017-02-01T04:54:43.451Z,2.29
2017-02-01T04:55:13.485Z,2.36
2017-02-01T04:55:43.510Z,2.3
2017-02-01T04:56:13.543Z,2.37
2017-02-01T04:56:43.570Z,2.27
2017-02-01T04:57:13.599Z,2.3
2017-02-01T04:57:43.631Z,2.25
2017-02-01T04:58:13.664Z,2.25
2017-02-01T04:58:43.700Z,2.27
2017-02-01T04:59:13.722Z,2.26
2017-02-01T04:59:43.758Z,2.26
2017-02-01T05:00:13.791Z,2.32
2017-02-01T05:00:43.809Z,2.27
2017-02-01T05:01:13.847Z,2.3
2017-02-01T05:01:43.867Z,2.26
2017-02-01T05:02:13.904Z,2.25
2017-02-01T05:02:43.927Z,2.32
2017-02-01T05:03:13.967Z,2.22
2017-02-01T05:03:43.993Z,2.32
2017-02-01T05:04:14.023Z,2.3
2017-02-01T05:04:44.051Z,2.33
2017-02-01T05:05:13.939Z,2.3
2017-02-01T05:05:44.116Z,2.3
2017-02-01T05:06:14.141Z,2.3
2017-02-01T05:06:44.676Z,2.3
2017-02-01T05:07:14.231Z,2.29
2017-02-01T05:07:44.232Z,2.36
2017-02-01T05:08:14.268Z,2.33
2017-02-01T05:08:44.292Z,2.41
2017-02-01T05:09:14.331Z,2.37
2017-02-01T05:09:44.358Z,2.37
2017-02-01T05:10:14.385Z,2.36
2017-02-01T05:10:44.414Z,2.37
2017-02-01T05:11:14.453Z,2.4
2017-02-01T05:11:44.735Z,2.36
2017-02-01T05:12:14.511Z,2.36
2017-02-01T05:12:44.534Z,2.41
2017-02-01T05:13:14.566Z,2.43
2017-02-01T05:13:44.601Z,2.43
2017-02-01T05:14:14.649Z,2.4
2017-02-01T05:14:44.655Z,2.36
2017-02-01T05:15:14.536Z,2.44
2017-02-01T05:15:44.718Z,2.41
2017-02-01T05:16:14.749Z,2.47
2017-02-01T05:16:44.778Z,2.44
2017-02-01T05:17:14.807Z,2.48
2017-02-01T05:17:44.837Z,2.36
2017-02-01T05:18:14.861Z,2.41
2017-02-01T05:18:44.899Z,2.47
2017-02-01T05:19:14.954Z,2.47
2017-02-01T05:19:44.952Z,2.41
2017-02-01T05:20:14.985Z,2.5
2017-02-01T05:20:45.016Z,2.44
2017-02-01T05:21:15.046Z,2.45
2017-02-01T05:21:45.079Z,2.5
2017-02-01T05:22:15.117Z,2.53
2017-02-01T05:22:45.145Z,2.5
2017-02-01T05:23:15.183Z,2.43
2017-02-01T05:23:45.204Z,2.48
2017-02-01T05:24:15.228Z,2.41
2017-02-01T05:24:45.261Z,2.44
2017-02-01T05:25:15.287Z,2.43
2017-02-01T05:25:45.328Z,2.53
2017-02-01T05:26:15.348Z,2.47
2017-02-01T05:26:45.385Z,2.43
2017-02-01T05:27:15.708Z,2.48
2017-02-01T05:27:45.439Z,2.41
2017-02-01T05:28:15.471Z,2.43
2017-02-01T05:28:45.507Z,2.47
2017-02-01T05:29:15.527Z,2.4
2017-02-01T05:29:45.566Z,2.44
2017-02-01T05:30:15.598Z,2.45
2017-02-01T05:30:45.620Z,2.51
2017-02-01T05:31:15.658Z,2.51
2017-02-01T05:31:45.679Z,2.5
2017-02-01T05:32:16.012Z,2.45
2017-02-01T05:32:45.744Z,2.47
2017-02-01T05:33:15.776Z,2.43
2017-02-01T05:33:45.801Z,2.47
2017-02-01T05:34:15.835Z,2.45
2017-02-01T05:34:45.862Z,2.44
2017-02-01T05:35:15.908Z,2.45
2017-02-01T05:35:45.926Z,2.29
2017-02-01T05:36:15.953Z,2.5
2017-02-01T05:36:45.984Z,2.44
2017-02-01T05:37:16.012Z,2.45
2017-02-01T05:37:46.043Z,2.43
2017-02-01T05:38:16.079Z,2.43
2017-02-01T05:38:46.107Z,2.38
2017-02-01T05:39:16.139Z,2.43
2017-02-01T05:39:46.201Z,2.41
2017-02-01T05:40:16.194Z,2.44
2017-02-01T05:40:46.218Z,2.48
2017-02-01T05:41:16.257Z,2.45
2017-02-01T05:41:46.291Z,2.48
2017-02-01T05:42:16.324Z,2.41
2017-02-01T05:42:46.597Z,2.47
2017-02-01T05:43:16.381Z,2.45
2017-02-01T05:43:46.409Z,2.41
2017-02-01T05:44:16.435Z,2.47
2017-02-01T05:44:46.474Z,2.45
2017-02-01T05:45:16.487Z,2.43
2017-02-01T05:45:46.522Z,2.47
2017-02-01T05:46:16.558Z,2.47
2017-02-01T05:46:46.591Z,2.44
2017-02-01T05:47:16.627Z,2.44
2017-02-01T05:47:46.996Z,2.5
2017-02-01T05:48:16.677Z,2.51
2017-02-01T05:48:46.706Z,2.53
2017-02-01T05:49:16.744Z,2.51
2017-02-01T05:49:46.772Z,2.55
2017-02-01T05:50:16.801Z,2.62
2017-02-01T05:50:46.860Z,2.47
2017-02-01T05:51:16.858Z,2.56
2017-02-01T05:51:46.892Z,2.61
2017-02-01T05:52:16.928Z,2.65
2017-02-01T05:52:47.246Z,2.62
2017-02-01T05:53:16.982Z,2.58
2017-02-01T05:53:47.013Z,2.58
2017-02-01T05:54:17.047Z,2.59
2017-02-01T05:54:47.066Z,2.59
2017-02-01T05:55:17.104Z,2.55
2017-02-01T05:55:47.128Z,2.68
2017-02-01T05:56:17.162Z,2.66
2017-02-01T05:56:47.189Z,2.63
2017-02-01T05:57:17.228Z,2.62
2017-02-01T05:57:47.555Z,2.63
2017-02-01T05:58:17.285Z,2.66
2017-02-01T05:58:47.317Z,2.62
2017-02-01T05:59:17.351Z,2.63
2017-02-01T05:59:47.376Z,2.63
2017-02-01T06:00:17.402Z,2.59
2017-02-01T06:00:47.433Z,2.61
2017-02-01T06:01:17.458Z,2.61
2017-02-01T06:01:47.495Z,2.63
2017-02-01T06:02:17.524Z,2.62
2017-02-01T06:02:47.558Z,2.62
2017-02-01T06:03:17.582Z,2.58
2017-02-01T06:03:47.619Z,2.71
2017-02-01T06:04:17.649Z,2.62
2017-02-01T06:04:47.689Z,2.66
2017-02-01T06:05:17.709Z,2.66
2017-02-01T06:05:47.746Z,2.69
2017-02-01T06:06:17.767Z,2.68
2017-02-01T06:06:47.806Z,2.77
2017-02-01T06:07:17.831Z,2.69
2017-02-01T06:07:47.859Z,2.71
2017-02-01T06:08:17.893Z,2.74
2017-02-01T06:08:47.921Z,2.71
2017-02-01T06:09:17.949Z,2.69
2017-02-01T06:09:47.977Z,2.73
2017-02-01T06:10:18.008Z,2.74
2017-02-01T06:10:48.044Z,2.73
2017-02-01T06:11:18.069Z,2.65
2017-02-01T06:11:48.110Z,2.63
2017-02-01T06:12:18.135Z,2.79
2017-02-01T06:12:48.159Z,2.73
2017-02-01T06:13:18.296Z,2.71
2017-02-01T06:13:48.230Z,2.76
2017-02-01T06:14:18.259Z,2.68
2017-02-01T06:14:48.276Z,2.76
2017-02-01T06:15:18.309Z,2.69
2017-02-01T06:15:48.200Z,2.66
2017-02-01T06:16:18.380Z,2.77
2017-02-01T06:16:48.396Z,2.76
2017-02-01T06:17:18.428Z,2.77
2017-02-01T06:17:48.470Z,2.79
2017-02-01T06:18:18.750Z,2.76
2017-02-01T06:18:48.537Z,2.73
2017-02-01T06:19:18.549Z,2.8
2017-02-01T06:19:48.591Z,2.77
2017-02-01T06:20:18.614Z,2.8
2017-02-01T06:20:48.648Z,2.86
2017-02-01T06:21:18.667Z,2.81
2017-02-01T06:21:48.711Z,2.76
2017-02-01T06:22:18.727Z,2.83
2017-02-01T06:22:48.766Z,2.69
2017-02-01T06:23:19.149Z,2.79
2017-02-01T06:23:48.829Z,2.79
2017-02-01T06:24:18.709Z,2.74
2017-02-01T06:24:48.888Z,2.83
2017-02-01T06:25:18.916Z,2.79
2017-02-01T06:25:48.941Z,2.79
2017-02-01T06:26:18.984Z,2.77
2017-02-01T06:26:49.005Z,2.81
2017-02-01T06:27:19.036Z,2.83
2017-02-01T06:27:49.075Z,2.8
2017-02-01T06:28:19.097Z,2.83
2017-02-01T06:28:49.124Z,2.8
2017-02-01T06:29:19.154Z,2.8
2017-02-01T06:29:49.182Z,2.77
2017-02-01T06:30:19.213Z,2.77
2017-02-01T06:30:49.247Z,2.81
2017-02-01T06:31:19.272Z,2.8
2017-02-01T06:31:49.306Z,2.81
2017-02-01T06:32:19.339Z,2.79
2017-02-01T06:32:49.362Z,2.76
2017-02-01T06:33:19.400Z,2.8
2017-02-01T06:33:49.727Z,2.8
2017-02-01T06:34:19.456Z,2.79
2017-02-01T06:34:49.487Z,2.77
2017-02-01T06:35:19.512Z,2.8
2017-02-01T06:35:49.555Z,2.81
2017-02-01T06:36:19.579Z,2.81
2017-02-01T06:36:49.610Z,2.83
2017-02-01T06:37:19.496Z,2.8
2017-02-01T06:37:49.667Z,2.79
2017-02-01T06:38:19.706Z,2.76
2017-02-01T06:38:50.077Z,2.81
2017-02-01T06:39:19.765Z,2.61
2017-02-01T06:39:49.798Z,2.77
2017-02-01T06:40:19.824Z,2.73
2017-02-01T06:40:49.846Z,2.81
2017-02-01T06:41:19.880Z,2.84